Wednesday, April 16, 2014, 9:50 AM EDT

KOXB, Ocean City Municipal Airport

Location: Berlin, MD, United States Lat: 38.317
Local Time: 9:50 AM EDT (13:50 GMT) Lon: -75.117
Time Zone: US/Eastern Elev: 13 ft

Show me the last for .
Show Decoded

2014-04-16 08:53 METAR KOXB 161253Z AUTO 35017G26KT 10SM CLR 03/M07 A3029 RMK AO2 PK WND
                 35026/1250 SLP256 T00281067 TSNO =
2014-04-16 07:53 METAR KOXB 161153Z AUTO 34014G22KT 10SM CLR 02/M04 A3027 RMK AO2 SLP249 60000
                 70137 T00221044 10033 20011 51049 TSNO =
2014-04-16 06:53 METAR KOXB 161053Z AUTO 35011G21KT 10SM CLR 01/M04 A3023 RMK AO2 SLP237
                 T00111044 TSNO =
2014-04-16 05:53 METAR KOXB 160953Z AUTO 34009G16KT 10SM CLR 01/M05 A3019 RMK AO2 SLP221
                 T00111050 TSNO =
2014-04-16 04:53 METAR KOXB 160853Z AUTO 33010G20KT 10SM CLR 02/M04 A3012 RMK AO2 SLP199 60000
                 T00171039 51050 TSNO =
2014-04-16 03:53 METAR KOXB 160753Z AUTO 34014G20KT 10SM BKN038 03/M02 A3006 RMK AO2 SLP179
                 T00281017 TSNO =
2014-04-16 02:53 METAR KOXB 160653Z AUTO 34011KT 10SM OVC032 03/01 A3004 RMK AO2 RAE07UPB0559E06
                 SLP173 P0000 T00280006 TSNO =
2014-04-16 01:53 METAR KOXB 160553Z AUTO 34015G24KT 10SM -RA FEW016 BKN090 OVC100 03/01 A2997 RMK
                 AO2 PK WND 34027/0534 SLP149 P0006 60024 T00280011 10072 20028 51021 TSNO =
2014-04-16 01:48 METAR KOXB 160548Z AUTO 35015G25KT 10SM -RA SCT014 BKN060 OVC110 03/01 A2997 RMK
                 AO2 PK WND 34027/0534 P0006 TSNO =
2014-04-16 00:53 METAR KOXB 160453Z AUTO 34014G27KT 7SM RA SCT013 BKN025 OVC075 03/01 A2999 RMK
                 AO2 PK WND 35029/0418 PRESRR SLP154 P0011 T00280011 401780028 TSNO =
2014-04-16 00:43 METAR KOXB 160443Z AUTO 35018G24KT 7SM RA BKN011 BKN025 OVC075 03/02 A2997 RMK
                 AO2 PK WND 35029/0418 P0009 T00330017 TSNO =
2014-04-16 00:11 METAR KOXB 160411Z AUTO 35014G26KT 5SM RA BR SCT014 BKN028 OVC070 04/03 A2994
                 RMK AO2 PK WND 34026/0408 P0003 T00440028 TSNO =
2014-04-16 00:03 METAR KOXB 160403Z AUTO 34015G21KT 6SM RA BR SCT014 BKN055 OVC070 05/03 A2993
                 RMK AO2 P0001 T00500033 TSNO =
2014-04-15 23:53 METAR KOXB 160353Z AUTO 35015G28KT 5SM RA BR BKN014 BKN026 OVC060 05/03 A2991
                 RMK AO2 PK WND 33028/0314 SLP128 P0005 T00500033 TSNO =
2014-04-15 23:33 METAR KOXB 160333Z AUTO 33011G20KT 6SM RA BR SCT012 BKN016 OVC065 06/04 A2991
                 RMK AO2 PK WND 33028/0314 P0001 T00560039 TSNO =
2014-04-15 23:25 METAR KOXB 160325Z AUTO 34012G26KT 7SM -RA FEW014 SCT019 OVC060 06/03 A2990 RMK
                 AO2 PK WND 33028/0314 P0000 T00560033 TSNO =
2014-04-15 23:13 METAR KOXB 160313Z AUTO 35016G26KT 9SM -RA SCT012 BKN019 OVC065 06/03 A2989 RMK
                 AO2 PK WND 33027/0303 P0000 T00560033 TSNO =
2014-04-15 22:53 METAR KOXB 160253Z AUTO 35019G27KT 6SM -RA BR BKN014 BKN020 OVC046 06/04 A2988
                 RMK AO2 PK WND 36027/0253 SLP118 P0001 60002 T00610044 51042 TSNO =
2014-04-15 22:17 METAR KOXB 160217Z AUTO 35014G23KT 5SM RA BR BKN012 OVC055 07/05 A2985 RMK AO2
                 PK WND 34026/0154 P0000 T00670050 TSNO =
2014-04-15 22:10 METAR KOXB 160210Z AUTO 34015G23KT 9SM -RA FEW009 BKN022 OVC050 07/05 A2985 RMK
                 AO2 PK WND 34026/0154 P0000 T00670050 TSNO =
2014-04-15 22:01 METAR KOXB 160201Z AUTO 33017G26KT 10SM -RA SCT014 SCT029 OVC055 07/05 A2984 RMK
                 AO2 PK WND 34026/0154 PRESRR P0000 T00670050 TSNO =
2014-04-15 21:53 METAR KOXB 160153Z AUTO 35015G22KT 9SM -RA SCT013 BKN026 OVC055 07/05 A2983 RMK
                 AO2 PK WND 35028/0110 SLP101 P0000 T00720050 TSNO =
2014-04-15 20:53 METAR KOXB 160053Z AUTO 35018G33KT 8SM -RA OVC046 07/06 A2981 RMK AO2 PK WND
                 34033/0032 SLP092 P0001 T00720056 TSNO =
2014-04-15 20:17 METAR KOXB 160017Z AUTO 35019G25KT 6SM -RA BR SCT009 OVC040 08/07 A2977 RMK AO2
                 P0001 T00780067 TSNO =
2014-04-15 20:03 METAR KOXB 160003Z AUTO 36009G22KT 5SM RA BR FEW007 BKN011 OVC038 08/07 A2975
                 RMK AO2 P0000 T00830067 TSNO =
2014-04-15 19:53 METAR KOXB 152353Z AUTO 34013G23KT 8SM -RA FEW011 BKN021 OVC038 08/07 A2976 RMK
                 AO2 PK WND 31032/2257 WSHFT 2240 SLP075 P0039 60076 T00830072 10178 20083 53044
                 TSNO =
2014-04-15 19:34 METAR KOXB 152334Z AUTO 34014G26KT 5SM RA BR FEW010 BKN021 OVC039 09/08 A2974
                 RMK AO2 PK WND 31032/2257 WSHFT 2240 P0038 T00890078 TSNO =
2014-04-15 19:17 METAR KOXB 152317Z AUTO 34017G28KT 2 1/2SM +RA BR FEW010 BKN017 OVC029 09/08
                 A2971 RMK AO2 PK WND 31032/2257 WSHFT 2240 P0032 T00940083 TSNO =
2014-04-15 19:05 METAR KOXB 152305Z AUTO 33017G32KT 1 1/4SM +RA BR FEW002 BKN015 OVC037 10/09
                 A2969 RMK AO2 PK WND 31032/2257 WSHFT 2240 P0023 T01000094 TSNO =
2014-04-15 19:02 METAR KOXB 152302Z AUTO 33015G32KT 1SM +RA BR FEW002 BKN009 OVC014 10/09 A2969
                 RMK AO2 PK WND 31032/2257 WSHFT 2240 P0019 T01000094 TSNO =
2014-04-15 18:58 METAR KOXB 152258Z AUTO 33022G32KT 3/4SM +RA BR SCT002 BKN010 OVC017 11/10 A2969
                 RMK AO2 PK WND 31032/2257 WSHFT 2240 PRESRR P0012 T01110100 TSNO =
2014-04-15 18:53 METAR KOXB 152253Z AUTO 34017G25KT 1 1/4SM +RA BR BKN002 OVC010 13/12 A2966 RMK
                 AO2 WSHFT 2239 SLP045 P0036 T01280117 TSNO =
2014-04-15 18:51 METAR KOXB 152251Z AUTO 33017G25KT 1 3/4SM +RA BR BKN002 BKN010 OVC017 13/12
                 A2966 RMK AO2 P0026 TSNO =
2014-04-15 18:48 METAR KOXB 152248Z AUTO 32010G20KT 4SM RA BR BKN002 BKN010 OVC017 13/13 A2966
                 RMK AO2 PRESRR P0011 TSNO =
2014-04-15 18:41 METAR KOXB 152241Z AUTO 30010KT 2 1/2SM RA BR OVC002 14/13 A2964 RMK AO2 PRESRR
                 P0006 T01440133 TSNO =
2014-04-15 17:49 METAR KOXB 152149Z AUTO 20008G16KT 1 1/2SM -RA BR OVC002 14/13 A2963 RMK AO2
                 RAB01 SLP032 P0001 T01390133 TSNO =
2014-04-15 17:48 METAR KOXB 152148Z AUTO 20009G16KT 160V220 1 3/4SM -RA BR OVC002 14/13 A2963 RMK
                 AO2 RAB01 P0001 TSNO =
2014-04-15 17:36 METAR KOXB 152136Z AUTO 20008KT 3SM -RA BR OVC002 15/14 A2963 RMK AO2 RAB01
                 P0001 T01500144 TSNO =
2014-04-15 17:28 METAR KOXB 152128Z AUTO 19006G18KT 1 1/2SM -RA BR OVC002 16/15 A2963 RMK AO2
                 RAB01 PRESFR P0001 T01610150 TSNO =
2014-04-15 17:13 METAR KOXB 152113Z AUTO 21014G23KT 1/2SM -RA FG OVC002 17/16 A2965 RMK AO2 RAB01
                 P0000 T01670156 TSNO =
2014-04-15 16:53 METAR KOXB 152053Z AUTO 21013G23KT 1 1/2SM BR OVC003 17/16 A2965 RMK AO2 PK WND
                 21026/2032 SLP040 60000 T01720161 58004 TSNO =
2014-04-15 16:50 METAR KOXB 152050Z AUTO 22015G23KT 1 3/4SM BR OVC003 17/16 A2965 RMK AO2 PK WND
                 21026/2032 TSNO =
2014-04-15 16:03 METAR KOXB 152003Z AUTO 22012G19KT 3SM BR OVC002 17/16 A2965 RMK AO2 T01670156
                 TSNO =
2014-04-15 15:53 METAR KOXB 151953Z AUTO 22013G22KT 1 1/4SM BR OVC002 16/15 A2966 RMK AO2 SLP042
                 T01610150 TSNO =
2014-04-15 15:13 METAR KOXB 151913Z AUTO 21012G23KT 1 3/4SM BR OVC003 16/15 A2966 RMK AO2
                 T01610150 TSNO =
2014-04-15 14:53 METAR KOXB 151853Z AUTO 21014G22KT 10SM BKN007 17/16 A2966 RMK AO2 RAE1756
                 SLP044 P0000 T01720161 TSNO =
2014-04-15 14:49 METAR KOXB 151849Z AUTO 21012G20KT 10SM BKN007 18/16 A2966 RMK AO2 RAE1756 P0000
                 TSNO =
2014-04-15 14:29 METAR KOXB 151829Z AUTO 22015G24KT 10SM SCT005 BKN048 17/16 A2967 RMK AO2
                 RAE1756 P0000 T01720156 TSNO =
2014-04-15 14:16 METAR KOXB 151816Z AUTO 22015G21KT 10SM OVC004 17/16 A2968 RMK AO2 RAE1756 CIG
                 003V009 P0000 T01670156 TSNO =
2014-04-15 13:53 METAR KOXB 151753Z AUTO 22014G20KT 10SM -RA OVC003 16/15 A2968 RMK AO2 SLP051
                 P0000 60037 T01610150 10167 20133 55012 TSNO =
2014-04-15 13:37 METAR KOXB 151737Z AUTO 22013G19KT 5SM -RA BR BKN003 OVC100 14/13 A2969 RMK AO2
                 P0000 T01440133 TSNO =
2014-04-15 12:53 METAR KOXB 151653Z AUTO 20010G17KT 4SM -RA BR SCT005 BKN090 OVC110 15/14 A2968
                 RMK AO2 PK WND 24036/1610 SLP050 P0028 T01500139 TSNO =
2014-04-15 12:40 METAR KOXB 151640Z AUTO 22013G27KT 3SM RA BR SCT005 BKN038 OVC090 17/16 A2969
                 RMK AO2 PK WND 24036/1610 PRESFR P0028 T01670156 TSNO =
2014-04-15 12:36 METAR KOXB 151636Z AUTO 22016G27KT 4SM RA BR BKN004 BKN038 OVC095 17/16 A2970
                 RMK AO2 PK WND 24036/1610 P0027 T01670156 TSNO =
2014-04-15 12:27 METAR KOXB 151627Z AUTO 21015G22KT 2SM RA BR BKN004 OVC065 16/14 A2971 RMK AO2
                 PK WND 24036/1610 P0025 T01560144 TSNO =
2014-04-15 12:13 METAR KOXB 151613Z AUTO 21016G36KT 3/4SM +RA BR OVC004 16/16 A2972 RMK AO2 PK
                 WND 24036/1610 VIS 1/4V3 P0020 T01610156 TSNO =
2014-04-15 12:08 METAR KOXB 151608Z AUTO 24016G29KT 1 3/4SM RA BR OVC002 16/14 A2972 RMK AO2 PK
                 WND 24029/1608 P0006 T01560144 TSNO =
2014-04-15 11:53 METAR KOXB 151553Z AUTO 21013G20KT 1/2SM -RA FG OVC002 14/13 A2971 RMK AO2 RAB02
                 SLP061 P0007 T01390133 TSNO =
2014-04-15 11:27 METAR KOXB 151527Z AUTO 22013G23KT 3/4SM -RA BR OVC002 14/13 A2972 RMK AO2 RAB02
                 P0001 T01440133 TSNO =
2014-04-15 11:13 METAR KOXB 151513Z AUTO 21010G22KT 1SM -RA BR OVC002 14/13 A2972 RMK AO2 RAB02
                 P0000 T01390133 TSNO =
2014-04-15 10:53 METAR KOXB 151453Z AUTO 20010G18KT 1/2SM FG OVC002 14/13 A2972 RMK AO2 SLP063
                 60002 T01440133 56018 TSNO =
2014-04-15 10:42 METAR KOXB 151442Z AUTO 20010G22KT 3/4SM BR OVC002 14/13 A2972 RMK AO2 T01440133
                 TSNO =
2014-04-15 09:53 METAR KOXB 151353Z AUTO 20011G20KT 5SM BR OVC002 14/13 A2973 RMK AO2 RAE1258
                 SLP067 P0000 T01390133 TSNO =

Support USWX by starting your Amazon purchase here.